KLM1163 EHAM-ENBR
Flight info
| Callsign | KLM1163 |
|---|---|
| Flight time | N/A |
| Altitude | 39000 |
| Route | ANDIK N873 REXMI/N0446F400 DCT KARLI DCT ALUVA |
| Aircraft | E190/M-SDE3GILORVW/S |
Departure
| Time | 2026-04-30 11:02 |
|---|---|
| Airport | Amsterdam Airport Schiphol (EHAM) |
Arrival
| Time | N/A |
|---|---|
| Airport | Bergen Airport, Flesland (ENBR) |
| Time | Latitude | Longitude | Altitude | Speed | Heading |
|---|---|---|---|---|---|
| 2026-04-30 10:30 | 52.30337 | 4.76214 | -2 ft | 0 kts | 58° |
| 2026-04-30 10:45 | 52.30336 | 4.76211 | 25 ft | 2 kts | 58° |
| 2026-04-30 10:45 | 52.30323 | 4.76174 | -2 ft | 4 kts | 73° |
| 2026-04-30 10:45 | 52.30322 | 4.76140 | -2 ft | 3 kts | 139° |
| 2026-04-30 10:45 | 52.30325 | 4.76136 | -2 ft | 3 kts | 141° |
| 2026-04-30 10:52 | 52.30317 | 4.76143 | -2 ft | 3 kts | 148° |
| 2026-04-30 10:52 | 52.30278 | 4.76183 | -2 ft | 8 kts | 148° |
| 2026-04-30 10:52 | 52.30227 | 4.76234 | -2 ft | 9 kts | 148° |
| 2026-04-30 10:52 | 52.30219 | 4.76326 | -2 ft | 10 kts | 58° |
| 2026-04-30 10:53 | 52.30258 | 4.76428 | -2 ft | 13 kts | 58° |
| 2026-04-30 10:53 | 52.30314 | 4.76573 | -2 ft | 17 kts | 57° |
| 2026-04-30 10:53 | 52.30382 | 4.76748 | -2 ft | 19 kts | 58° |
| 2026-04-30 10:53 | 52.30451 | 4.76929 | -2 ft | 19 kts | 59° |
| 2026-04-30 10:54 | 52.30515 | 4.77095 | -2 ft | 19 kts | 58° |
| 2026-04-30 10:57 | 52.30538 | 4.77155 | -2 ft | 19 kts | 58° |
| 2026-04-30 10:57 | 52.30608 | 4.77338 | -2 ft | 19 kts | 58° |
| 2026-04-30 10:57 | 52.30707 | 4.77456 | -2 ft | 19 kts | 3° |
| 2026-04-30 10:57 | 52.30845 | 4.77468 | -2 ft | 21 kts | 4° |
| 2026-04-30 10:58 | 52.30992 | 4.77483 | -2 ft | 22 kts | 4° |
| 2026-04-30 10:58 | 52.31149 | 4.77496 | -2 ft | 23 kts | 2° |
| 2026-04-30 10:58 | 52.31309 | 4.77472 | -2 ft | 24 kts | 325° |
| 2026-04-30 10:58 | 52.31422 | 4.77266 | -2 ft | 25 kts | 310° |
| 2026-04-30 10:59 | 52.31482 | 4.77007 | -2 ft | 26 kts | 267° |
| 2026-04-30 10:59 | 52.31471 | 4.76700 | -2 ft | 28 kts | 267° |
| 2026-04-30 10:59 | 52.31460 | 4.76381 | -2 ft | 29 kts | 266° |
| 2026-04-30 10:59 | 52.31448 | 4.76045 | -2 ft | 30 kts | 267° |
| 2026-04-30 11:00 | 52.31437 | 4.75747 | -2 ft | 26 kts | 266° |
| 2026-04-30 11:00 | 52.31426 | 4.75448 | -2 ft | 27 kts | 266° |
| 2026-04-30 11:00 | 52.31415 | 4.75132 | -2 ft | 28 kts | 266° |
| 2026-04-30 11:00 | 52.31406 | 4.74839 | -2 ft | 22 kts | 266° |
| 2026-04-30 11:01 | 52.31420 | 4.74689 | -2 ft | 12 kts | 315° |
| 2026-04-30 11:01 | 52.31504 | 4.74668 | -2 ft | 13 kts | 356° |
| 2026-04-30 11:01 | 52.31603 | 4.74660 | -2 ft | 15 kts | 2° |
| 2026-04-30 11:01 | 52.31668 | 4.74771 | -2 ft | 15 kts | 87° |
| 2026-04-30 11:02 | 52.31676 | 4.75053 | -5 ft | 55 kts | 87° |
| 2026-04-30 11:02 | 52.31711 | 4.76142 | 2 ft | 133 kts | 88° |
| 2026-04-30 11:02 | 52.31784 | 4.77919 | 483 ft | 175 kts | 84° |
| 2026-04-30 11:02 | 52.31947 | 4.80165 | 850 ft | 231 kts | 82° |
| 2026-04-30 11:03 | 52.32198 | 4.83124 | 1066 ft | 291 kts | 79° |
| 2026-04-30 11:03 | 52.32773 | 4.86514 | 1521 ft | 325 kts | 69° |
| 2026-04-30 11:03 | 52.33712 | 4.89895 | 1781 ft | 331 kts | 65° |
| 2026-04-30 11:04 | 52.35664 | 4.96438 | 1654 ft | 304 kts | 62° |
| 2026-04-30 11:04 | 52.36888 | 4.99270 | 1199 ft | 315 kts | 52° |
| 2026-04-30 11:04 | 52.38412 | 5.02001 | 1393 ft | 325 kts | 47° |
| 2026-04-30 11:04 | 52.40021 | 5.04664 | 1055 ft | 337 kts | 46° |
| 2026-04-30 11:05 | 52.41878 | 5.06986 | 1013 ft | 333 kts | 33° |
| 2026-04-30 11:05 | 52.43848 | 5.08781 | 2277 ft | 322 kts | 32° |
| 2026-04-30 11:05 | 52.45856 | 5.10628 | 2861 ft | 337 kts | 33° |
| 2026-04-30 11:05 | 52.47867 | 5.12529 | 3376 ft | 340 kts | 34° |
| 2026-04-30 11:06 | 52.49908 | 5.14522 | 3906 ft | 343 kts | 34° |
| 2026-04-30 11:06 | 52.52039 | 5.16328 | 4424 ft | 346 kts | 30° |
| 2026-04-30 11:06 | 52.54273 | 5.17958 | 4967 ft | 343 kts | 27° |
| 2026-04-30 11:06 | 52.56437 | 5.19232 | 5463 ft | 332 kts | 20° |
| 2026-04-30 11:07 | 52.58672 | 5.20266 | 6005 ft | 335 kts | 20° |
| 2026-04-30 11:07 | 52.60927 | 5.21286 | 6566 ft | 338 kts | 19° |
| 2026-04-30 11:07 | 52.63208 | 5.22293 | 7092 ft | 340 kts | 18° |
| 2026-04-30 11:07 | 52.65500 | 5.23304 | 7608 ft | 342 kts | 18° |
| 2026-04-30 11:08 | 52.67799 | 5.24316 | 8144 ft | 343 kts | 18° |
| 2026-04-30 11:08 | 52.70102 | 5.25361 | 8675 ft | 343 kts | 20° |
| 2026-04-30 11:08 | 52.72268 | 5.26948 | 9061 ft | 344 kts | 33° |
| 2026-04-30 11:08 | 52.74235 | 5.29166 | 9401 ft | 348 kts | 39° |
| 2026-04-30 11:09 | 52.76079 | 5.31726 | 9781 ft | 348 kts | 47° |
| 2026-04-30 11:09 | 52.77591 | 5.34859 | 10128 ft | 348 kts | 54° |
| 2026-04-30 11:09 | 52.79136 | 5.38014 | 10325 ft | 353 kts | 53° |
| 2026-04-30 11:09 | 52.80636 | 5.41203 | 10547 ft | 344 kts | 53° |
| 2026-04-30 11:10 | 52.82058 | 5.44209 | 10480 ft | 319 kts | 53° |
| 2026-04-30 11:10 | 52.83375 | 5.47010 | 10417 ft | 299 kts | 54° |
| 2026-04-30 11:10 | 52.84628 | 5.49684 | 10382 ft | 290 kts | 54° |
| 2026-04-30 11:10 | 52.85869 | 5.52329 | 10398 ft | 292 kts | 54° |
| 2026-04-30 11:11 | 52.87115 | 5.54991 | 10427 ft | 294 kts | 54° |
| 2026-04-30 11:11 | 52.87944 | 5.56761 | 10420 ft | 294 kts | 54° |
| 2026-04-30 11:11 | 52.89194 | 5.59439 | 10435 ft | 294 kts | 54° |
| 2026-04-30 11:11 | 52.90448 | 5.62103 | 10441 ft | 293 kts | 54° |
| 2026-04-30 11:12 | 52.91695 | 5.64775 | 10433 ft | 293 kts | 54° |
| 2026-04-30 11:12 | 52.92942 | 5.67450 | 10447 ft | 293 kts | 54° |
| 2026-04-30 11:12 | 52.94186 | 5.70122 | 10451 ft | 294 kts | 54° |
| 2026-04-30 11:12 | 52.95435 | 5.72806 | 10448 ft | 293 kts | 54° |